sensor_id;sensor_type;location;lat;lon;timestamp;P1;durP1;ratioP1;P2;durP2;ratioP2
795;SDS011;381;48.770;9.188;2023-04-03T00:00:28;4.67;;;4.37;;
795;SDS011;381;48.770;9.188;2023-04-03T00:05:31;4.70;;;4.33;;
795;SDS011;381;48.770;9.188;2023-04-03T00:10:35;4.53;;;4.13;;
795;SDS011;381;48.770;9.188;2023-04-03T00:15:37;4.93;;;4.63;;
795;SDS011;381;48.770;9.188;2023-04-03T00:20:40;5.30;;;4.80;;
795;SDS011;381;48.770;9.188;2023-04-03T00:25:43;4.63;;;4.33;;
795;SDS011;381;48.770;9.188;2023-04-03T00:30:45;4.53;;;4.10;;
795;SDS011;381;48.770;9.188;2023-04-03T00:35:49;5.07;;;4.70;;
795;SDS011;381;48.770;9.188;2023-04-03T00:40:53;4.53;;;4.23;;
795;SDS011;381;48.770;9.188;2023-04-03T00:45:56;5.00;;;4.70;;
795;SDS011;381;48.770;9.188;2023-04-03T00:50:58;4.70;;;4.40;;
795;SDS011;381;48.770;9.188;2023-04-03T00:56:02;4.40;;;4.10;;
795;SDS011;381;48.770;9.188;2023-04-03T01:01:12;4.53;;;4.23;;
795;SDS011;381;48.770;9.188;2023-04-03T01:06:18;4.67;;;4.37;;
795;SDS011;381;48.770;9.188;2023-04-03T01:11:26;6.50;;;4.70;;
795;SDS011;381;48.770;9.188;2023-04-03T01:16:29;4.70;;;4.30;;
795;SDS011;381;48.770;9.188;2023-04-03T01:21:49;5.00;;;4.50;;
795;SDS011;381;48.770;9.188;2023-04-03T01:26:59;5.20;;;4.80;;
795;SDS011;381;48.770;9.188;2023-04-03T01:32:05;4.60;;;4.30;;
795;SDS011;381;48.770;9.188;2023-04-03T01:37:07;7.77;;;4.60;;
795;SDS011;381;48.770;9.188;2023-04-03T01:42:09;4.67;;;4.33;;
795;SDS011;381;48.770;9.188;2023-04-03T01:47:17;4.73;;;4.33;;
795;SDS011;381;48.770;9.188;2023-04-03T01:52:19;4.37;;;3.97;;
795;SDS011;381;48.770;9.188;2023-04-03T01:57:21;5.50;;;4.77;;
795;SDS011;381;48.770;9.188;2023-04-03T02:02:25;4.73;;;4.43;;
795;SDS011;381;48.770;9.188;2023-04-03T02:07:27;4.90;;;4.47;;
795;SDS011;381;48.770;9.188;2023-04-03T02:12:29;4.40;;;4.10;;
795;SDS011;381;48.770;9.188;2023-04-03T02:17:34;5.03;;;4.53;;
795;SDS011;381;48.770;9.188;2023-04-03T02:22:37;4.60;;;4.30;;
795;SDS011;381;48.770;9.188;2023-04-03T02:27:39;4.50;;;4.20;;
795;SDS011;381;48.770;9.188;2023-04-03T02:32:42;4.50;;;4.20;;
795;SDS011;381;48.770;9.188;2023-04-03T02:37:45;4.60;;;4.20;;
795;SDS011;381;48.770;9.188;2023-04-03T02:42:48;5.00;;;4.60;;
795;SDS011;381;48.770;9.188;2023-04-03T02:47:51;5.30;;;4.90;;
795;SDS011;381;48.770;9.188;2023-04-03T02:52:53;4.90;;;4.50;;
795;SDS011;381;48.770;9.188;2023-04-03T02:57:55;4.83;;;4.50;;
795;SDS011;381;48.770;9.188;2023-04-03T03:02:59;4.57;;;4.27;;
795;SDS011;381;48.770;9.188;2023-04-03T03:08:02;4.53;;;4.33;;
795;SDS011;381;48.770;9.188;2023-04-03T03:13:04;4.90;;;4.50;;
795;SDS011;381;48.770;9.188;2023-04-03T03:18:07;5.10;;;4.70;;
795;SDS011;381;48.770;9.188;2023-04-03T03:23:09;5.20;;;4.80;;
795;SDS011;381;48.770;9.188;2023-04-03T03:28:15;5.10;;;4.80;;
795;SDS011;381;48.770;9.188;2023-04-03T03:33:18;4.73;;;4.33;;
795;SDS011;381;48.770;9.188;2023-04-03T03:38:21;5.00;;;4.70;;
795;SDS011;381;48.770;9.188;2023-04-03T03:43:23;5.20;;;4.83;;
795;SDS011;381;48.770;9.188;2023-04-03T03:48:28;4.50;;;4.30;;
795;SDS011;381;48.770;9.188;2023-04-03T03:53:30;4.83;;;4.43;;
795;SDS011;381;48.770;9.188;2023-04-03T03:58:38;5.33;;;4.80;;
795;SDS011;381;48.770;9.188;2023-04-03T04:03:42;4.90;;;4.40;;
795;SDS011;381;48.770;9.188;2023-04-03T04:08:48;6.97;;;6.27;;
795;SDS011;381;48.770;9.188;2023-04-03T04:13:50;11.53;;;9.43;;
795;SDS011;381;48.770;9.188;2023-04-03T04:18:56;5.37;;;4.97;;
795;SDS011;381;48.770;9.188;2023-04-03T04:23:59;4.23;;;3.83;;
795;SDS011;381;48.770;9.188;2023-04-03T04:29:01;4.97;;;4.57;;
795;SDS011;381;48.770;9.188;2023-04-03T04:34:08;5.07;;;4.57;;
795;SDS011;381;48.770;9.188;2023-04-03T04:39:11;4.73;;;4.33;;
795;SDS011;381;48.770;9.188;2023-04-03T04:44:15;5.40;;;4.40;;
795;SDS011;381;48.770;9.188;2023-04-03T04:49:18;4.50;;;4.10;;
795;SDS011;381;48.770;9.188;2023-04-03T04:54:21;4.33;;;3.93;;
795;SDS011;381;48.770;9.188;2023-04-03T04:59:24;5.20;;;4.80;;
795;SDS011;381;48.770;9.188;2023-04-03T05:04:30;5.10;;;4.03;;
795;SDS011;381;48.770;9.188;2023-04-03T05:09:39;4.60;;;4.30;;
795;SDS011;381;48.770;9.188;2023-04-03T05:14:43;4.03;;;3.77;;
795;SDS011;381;48.770;9.188;2023-04-03T05:19:47;6.20;;;4.37;;
795;SDS011;381;48.770;9.188;2023-04-03T05:24:50;4.40;;;4.10;;
795;SDS011;381;48.770;9.188;2023-04-03T05:29:54;4.20;;;3.90;;
795;SDS011;381;48.770;9.188;2023-04-03T05:34:58;5.50;;;4.20;;
795;SDS011;381;48.770;9.188;2023-04-03T05:40:02;4.00;;;3.70;;
795;SDS011;381;48.770;9.188;2023-04-03T05:45:05;5.40;;;4.23;;
795;SDS011;381;48.770;9.188;2023-04-03T05:50:09;6.30;;;4.40;;
795;SDS011;381;48.770;9.188;2023-04-03T05:55:12;4.77;;;4.20;;
795;SDS011;381;48.770;9.188;2023-04-03T06:00:15;4.37;;;4.07;;
795;SDS011;381;48.770;9.188;2023-04-03T06:05:26;4.47;;;4.10;;
795;SDS011;381;48.770;9.188;2023-04-03T06:10:28;4.50;;;4.10;;
795;SDS011;381;48.770;9.188;2023-04-03T06:15:31;4.30;;;3.90;;
795;SDS011;381;48.770;9.188;2023-04-03T06:20:35;5.23;;;4.13;;
795;SDS011;381;48.770;9.188;2023-04-03T06:25:37;4.20;;;3.90;;
795;SDS011;381;48.770;9.188;2023-04-03T06:30:39;6.63;;;3.63;;
795;SDS011;381;48.770;9.188;2023-04-03T06:35:43;4.00;;;3.60;;
795;SDS011;381;48.770;9.188;2023-04-03T06:40:45;6.50;;;4.13;;
795;SDS011;381;48.770;9.188;2023-04-03T06:45:48;4.10;;;3.70;;
795;SDS011;381;48.770;9.188;2023-04-03T06:50:51;3.90;;;3.60;;
795;SDS011;381;48.770;9.188;2023-04-03T06:55:54;4.10;;;3.80;;
795;SDS011;381;48.770;9.188;2023-04-03T07:00:56;4.33;;;3.93;;
795;SDS011;381;48.770;9.188;2023-04-03T07:06:00;4.00;;;3.80;;
795;SDS011;381;48.770;9.188;2023-04-03T07:11:02;4.67;;;4.27;;
795;SDS011;381;48.770;9.188;2023-04-03T07:16:05;3.87;;;3.57;;
795;SDS011;381;48.770;9.188;2023-04-03T07:21:10;3.83;;;3.57;;
795;SDS011;381;48.770;9.188;2023-04-03T07:26:12;4.80;;;4.10;;
795;SDS011;381;48.770;9.188;2023-04-03T07:31:14;5.03;;;4.53;;
795;SDS011;381;48.770;9.188;2023-04-03T07:36:19;4.60;;;4.20;;
795;SDS011;381;48.770;9.188;2023-04-03T07:41:23;4.00;;;3.60;;
795;SDS011;381;48.770;9.188;2023-04-03T07:46:25;4.00;;;3.70;;
795;SDS011;381;48.770;9.188;2023-04-03T07:51:28;4.47;;;4.07;;
795;SDS011;381;48.770;9.188;2023-04-03T07:56:31;4.20;;;3.90;;
795;SDS011;381;48.770;9.188;2023-04-03T08:01:33;4.40;;;3.23;;
795;SDS011;381;48.770;9.188;2023-04-03T08:06:37;4.37;;;3.00;;
795;SDS011;381;48.770;9.188;2023-04-03T08:11:39;3.73;;;3.43;;
795;SDS011;381;48.770;9.188;2023-04-03T08:16:41;4.30;;;3.30;;
795;SDS011;381;48.770;9.188;2023-04-03T08:21:46;3.60;;;3.13;;
795;SDS011;381;48.770;9.188;2023-04-03T08:26:48;3.03;;;2.80;;
795;SDS011;381;48.770;9.188;2023-04-03T08:31:50;3.57;;;3.27;;
795;SDS011;381;48.770;9.188;2023-04-03T08:36:54;3.60;;;3.30;;
795;SDS011;381;48.770;9.188;2023-04-03T08:41:57;5.33;;;4.00;;
795;SDS011;381;48.770;9.188;2023-04-03T08:47:02;3.17;;;2.87;;
795;SDS011;381;48.770;9.188;2023-04-03T08:52:15;3.50;;;3.20;;
795;SDS011;381;48.770;9.188;2023-04-03T08:57:20;3.57;;;3.27;;
795;SDS011;381;48.770;9.188;2023-04-03T09:02:33;5.30;;;3.27;;
795;SDS011;381;48.770;9.188;2023-04-03T09:07:44;3.90;;;3.37;;
795;SDS011;381;48.770;9.188;2023-04-03T09:12:53;3.87;;;3.17;;
795;SDS011;381;48.770;9.188;2023-04-03T09:18:03;3.07;;;2.70;;
795;SDS011;381;48.770;9.188;2023-04-03T09:23:15;6.43;;;3.23;;
795;SDS011;381;48.770;9.188;2023-04-03T09:28:23;3.33;;;3.13;;
795;SDS011;381;48.770;9.188;2023-04-03T09:33:26;4.47;;;3.50;;
795;SDS011;381;48.770;9.188;2023-04-03T09:38:32;3.63;;;3.30;;
795;SDS011;381;48.770;9.188;2023-04-03T09:43:35;5.50;;;3.20;;
795;SDS011;381;48.770;9.188;2023-04-03T09:48:39;3.23;;;2.80;;
795;SDS011;381;48.770;9.188;2023-04-03T09:53:53;4.30;;;3.40;;
795;SDS011;381;48.770;9.188;2023-04-03T09:59:06;3.33;;;3.03;;
795;SDS011;381;48.770;9.188;2023-04-03T10:04:16;3.40;;;3.20;;
795;SDS011;381;48.770;9.188;2023-04-03T10:09:25;4.60;;;3.20;;
795;SDS011;381;48.770;9.188;2023-04-03T10:14:29;5.50;;;3.83;;
795;SDS011;381;48.770;9.188;2023-04-03T10:19:32;3.57;;;3.27;;
795;SDS011;381;48.770;9.188;2023-04-03T10:24:43;3.10;;;2.80;;
795;SDS011;381;48.770;9.188;2023-04-03T10:29:52;6.37;;;3.93;;
795;SDS011;381;48.770;9.188;2023-04-03T10:35:02;3.43;;;3.10;;
795;SDS011;381;48.770;9.188;2023-04-03T10:40:15;3.37;;;2.90;;
795;SDS011;381;48.770;9.188;2023-04-03T10:45:25;3.23;;;2.83;;
795;SDS011;381;48.770;9.188;2023-04-03T10:50:42;3.60;;;3.17;;
795;SDS011;381;48.770;9.188;2023-04-03T10:55:50;6.33;;;3.33;;
795;SDS011;381;48.770;9.188;2023-04-03T11:01:00;4.40;;;3.33;;
795;SDS011;381;48.770;9.188;2023-04-03T11:06:08;4.80;;;2.90;;
795;SDS011;381;48.770;9.188;2023-04-03T11:11:16;3.50;;;3.20;;
795;SDS011;381;48.770;9.188;2023-04-03T11:16:23;4.33;;;3.13;;
795;SDS011;381;48.770;9.188;2023-04-03T11:21:29;3.10;;;2.33;;
795;SDS011;381;48.770;9.188;2023-04-03T11:26:38;4.00;;;3.10;;
795;SDS011;381;48.770;9.188;2023-04-03T11:31:48;3.00;;;2.80;;
795;SDS011;381;48.770;9.188;2023-04-03T11:37:05;3.70;;;2.90;;
795;SDS011;381;48.770;9.188;2023-04-03T11:42:17;3.20;;;2.90;;
795;SDS011;381;48.770;9.188;2023-04-03T11:47:44;3.80;;;2.93;;
795;SDS011;381;48.770;9.188;2023-04-03T11:52:57;3.43;;;3.23;;
795;SDS011;381;48.770;9.188;2023-04-03T11:58:03;2.70;;;2.50;;
795;SDS011;381;48.770;9.188;2023-04-03T12:03:30;3.23;;;2.80;;
795;SDS011;381;48.770;9.188;2023-04-03T12:08:44;3.20;;;2.90;;
795;SDS011;381;48.770;9.188;2023-04-03T12:24:33;3.13;;;2.83;;
795;SDS011;381;48.770;9.188;2023-04-03T12:29:38;5.13;;;3.23;;
795;SDS011;381;48.770;9.188;2023-04-03T12:34:49;3.90;;;3.07;;
795;SDS011;381;48.770;9.188;2023-04-03T12:40:08;2.73;;;2.47;;
795;SDS011;381;48.770;9.188;2023-04-03T12:45:19;4.47;;;2.90;;
795;SDS011;381;48.770;9.188;2023-04-03T12:50:22;2.77;;;2.57;;
795;SDS011;381;48.770;9.188;2023-04-03T12:55:26;3.40;;;2.90;;
795;SDS011;381;48.770;9.188;2023-04-03T13:00:31;4.93;;;3.43;;
795;SDS011;381;48.770;9.188;2023-04-03T13:05:35;3.17;;;2.97;;
795;SDS011;381;48.770;9.188;2023-04-03T13:10:43;4.13;;;3.40;;
795;SDS011;381;48.770;9.188;2023-04-03T13:15:50;5.20;;;3.20;;
795;SDS011;381;48.770;9.188;2023-04-03T13:20:53;3.20;;;2.90;;
795;SDS011;381;48.770;9.188;2023-04-03T13:25:59;3.27;;;2.97;;
795;SDS011;381;48.770;9.188;2023-04-03T13:31:07;3.67;;;2.80;;
795;SDS011;381;48.770;9.188;2023-04-03T13:36:19;3.13;;;2.93;;
795;SDS011;381;48.770;9.188;2023-04-03T13:41:24;5.33;;;3.50;;
795;SDS011;381;48.770;9.188;2023-04-03T13:46:28;4.60;;;3.30;;
795;SDS011;381;48.770;9.188;2023-04-03T13:51:31;2.50;;;2.40;;
795;SDS011;381;48.770;9.188;2023-04-03T13:56:34;3.20;;;2.90;;
795;SDS011;381;48.770;9.188;2023-04-03T14:01:41;3.10;;;2.90;;
795;SDS011;381;48.770;9.188;2023-04-03T14:06:45;3.57;;;3.37;;
795;SDS011;381;48.770;9.188;2023-04-03T14:11:49;3.50;;;3.13;;
795;SDS011;381;48.770;9.188;2023-04-03T14:16:55;4.93;;;3.80;;
795;SDS011;381;48.770;9.188;2023-04-03T14:22:00;3.23;;;3.03;;
795;SDS011;381;48.770;9.188;2023-04-03T14:27:15;3.50;;;3.20;;
795;SDS011;381;48.770;9.188;2023-04-03T14:32:22;3.30;;;3.10;;
795;SDS011;381;48.770;9.188;2023-04-03T14:37:26;3.27;;;3.00;;
795;SDS011;381;48.770;9.188;2023-04-03T14:42:32;3.00;;;2.80;;
795;SDS011;381;48.770;9.188;2023-04-03T14:47:39;4.40;;;3.37;;
795;SDS011;381;48.770;9.188;2023-04-03T14:52:45;4.33;;;3.33;;
795;SDS011;381;48.770;9.188;2023-04-03T14:57:47;3.17;;;2.97;;
795;SDS011;381;48.770;9.188;2023-04-03T15:02:53;3.37;;;3.17;;
795;SDS011;381;48.770;9.188;2023-04-03T15:07:55;3.43;;;3.13;;
795;SDS011;381;48.770;9.188;2023-04-03T15:13:00;3.10;;;2.80;;
795;SDS011;381;48.770;9.188;2023-04-03T15:18:04;4.20;;;2.70;;
795;SDS011;381;48.770;9.188;2023-04-03T15:23:08;7.30;;;3.57;;
795;SDS011;381;48.770;9.188;2023-04-03T15:28:15;3.10;;;2.90;;
795;SDS011;381;48.770;9.188;2023-04-03T15:33:22;3.17;;;2.93;;
795;SDS011;381;48.770;9.188;2023-04-03T15:38:24;3.93;;;3.07;;
795;SDS011;381;48.770;9.188;2023-04-03T15:43:26;3.17;;;2.90;;
795;SDS011;381;48.770;9.188;2023-04-03T15:48:30;4.30;;;3.70;;
795;SDS011;381;48.770;9.188;2023-04-03T15:53:34;3.70;;;3.40;;
795;SDS011;381;48.770;9.188;2023-04-03T15:58:36;6.03;;;3.03;;
795;SDS011;381;48.770;9.188;2023-04-03T16:03:40;3.90;;;3.50;;
795;SDS011;381;48.770;9.188;2023-04-03T16:08:45;3.30;;;3.10;;
795;SDS011;381;48.770;9.188;2023-04-03T16:13:48;5.30;;;2.77;;
795;SDS011;381;48.770;9.188;2023-04-03T16:18:54;3.40;;;3.10;;
795;SDS011;381;48.770;9.188;2023-04-03T16:23:57;3.10;;;2.80;;
795;SDS011;381;48.770;9.188;2023-04-03T16:29:00;4.63;;;3.00;;
795;SDS011;381;48.770;9.188;2023-04-03T16:34:04;3.23;;;3.03;;
795;SDS011;381;48.770;9.188;2023-04-03T16:39:06;4.40;;;3.47;;
795;SDS011;381;48.770;9.188;2023-04-03T16:44:09;4.27;;;3.30;;
795;SDS011;381;48.770;9.188;2023-04-03T16:49:13;3.30;;;2.93;;
795;SDS011;381;48.770;9.188;2023-04-03T16:54:15;3.80;;;3.50;;
795;SDS011;381;48.770;9.188;2023-04-03T16:59:17;3.17;;;2.97;;
795;SDS011;381;48.770;9.188;2023-04-03T17:04:20;3.30;;;3.00;;
795;SDS011;381;48.770;9.188;2023-04-03T17:09:23;3.40;;;3.10;;
795;SDS011;381;48.770;9.188;2023-04-03T17:14:25;3.63;;;3.33;;
795;SDS011;381;48.770;9.188;2023-04-03T17:19:28;2.70;;;2.50;;
795;SDS011;381;48.770;9.188;2023-04-03T17:24:30;4.93;;;3.17;;
795;SDS011;381;48.770;9.188;2023-04-03T17:29:33;3.90;;;3.60;;
795;SDS011;381;48.770;9.188;2023-04-03T17:34:37;4.70;;;3.50;;
795;SDS011;381;48.770;9.188;2023-04-03T17:39:39;4.50;;;3.53;;
795;SDS011;381;48.770;9.188;2023-04-03T17:44:41;5.77;;;3.33;;
795;SDS011;381;48.770;9.188;2023-04-03T17:49:45;3.20;;;3.00;;
795;SDS011;381;48.770;9.188;2023-04-03T17:54:48;4.00;;;3.60;;
795;SDS011;381;48.770;9.188;2023-04-03T17:59:50;4.70;;;3.80;;
795;SDS011;381;48.770;9.188;2023-04-03T18:04:54;3.83;;;3.40;;
795;SDS011;381;48.770;9.188;2023-04-03T18:09:56;3.30;;;3.10;;
795;SDS011;381;48.770;9.188;2023-04-03T18:15:00;5.87;;;3.43;;
795;SDS011;381;48.770;9.188;2023-04-03T18:20:06;4.53;;;3.70;;
795;SDS011;381;48.770;9.188;2023-04-03T18:25:10;5.30;;;4.00;;
795;SDS011;381;48.770;9.188;2023-04-03T18:30:16;5.57;;;3.90;;
795;SDS011;381;48.770;9.188;2023-04-03T18:35:20;3.87;;;3.57;;
795;SDS011;381;48.770;9.188;2023-04-03T18:40:25;6.20;;;3.27;;
795;SDS011;381;48.770;9.188;2023-04-03T18:45:27;5.97;;;3.77;;
795;SDS011;381;48.770;9.188;2023-04-03T18:50:31;3.40;;;2.90;;
795;SDS011;381;48.770;9.188;2023-04-03T18:55:34;3.93;;;3.53;;
795;SDS011;381;48.770;9.188;2023-04-03T19:00:37;3.93;;;3.57;;
795;SDS011;381;48.770;9.188;2023-04-03T19:05:42;4.00;;;3.67;;
795;SDS011;381;48.770;9.188;2023-04-03T19:10:45;4.50;;;3.10;;
795;SDS011;381;48.770;9.188;2023-04-03T19:15:47;4.13;;;3.83;;
795;SDS011;381;48.770;9.188;2023-04-03T19:20:52;4.27;;;3.97;;
795;SDS011;381;48.770;9.188;2023-04-03T19:25:56;4.17;;;3.77;;
795;SDS011;381;48.770;9.188;2023-04-03T19:31:00;3.83;;;3.53;;
795;SDS011;381;48.770;9.188;2023-04-03T19:36:05;6.33;;;4.50;;
795;SDS011;381;48.770;9.188;2023-04-03T19:41:07;4.60;;;4.20;;
795;SDS011;381;48.770;9.188;2023-04-03T19:46:12;4.87;;;4.43;;
795;SDS011;381;48.770;9.188;2023-04-03T19:51:15;3.90;;;3.60;;
795;SDS011;381;48.770;9.188;2023-04-03T19:56:18;3.50;;;3.20;;
795;SDS011;381;48.770;9.188;2023-04-03T20:01:22;4.23;;;3.87;;
795;SDS011;381;48.770;9.188;2023-04-03T20:06:28;3.57;;;3.10;;
795;SDS011;381;48.770;9.188;2023-04-03T20:11:30;3.43;;;3.13;;
795;SDS011;381;48.770;9.188;2023-04-03T20:16:34;6.67;;;3.33;;
795;SDS011;381;48.770;9.188;2023-04-03T20:21:38;3.40;;;3.10;;
795;SDS011;381;48.770;9.188;2023-04-03T20:26:40;3.93;;;3.50;;
795;SDS011;381;48.770;9.188;2023-04-03T20:31:45;3.70;;;3.23;;
795;SDS011;381;48.770;9.188;2023-04-03T20:36:49;4.20;;;3.80;;
795;SDS011;381;48.770;9.188;2023-04-03T20:41:52;4.80;;;3.50;;
795;SDS011;381;48.770;9.188;2023-04-03T20:46:54;3.30;;;3.10;;
795;SDS011;381;48.770;9.188;2023-04-03T20:51:58;3.80;;;3.40;;
795;SDS011;381;48.770;9.188;2023-04-03T20:57:00;4.00;;;3.60;;
795;SDS011;381;48.770;9.188;2023-04-03T21:02:02;4.00;;;3.70;;
795;SDS011;381;48.770;9.188;2023-04-03T21:24:10;5.93;;;5.37;;
795;SDS011;381;48.770;9.188;2023-04-03T21:29:13;4.00;;;3.70;;
795;SDS011;381;48.770;9.188;2023-04-03T21:34:17;3.50;;;3.20;;
795;SDS011;381;48.770;9.188;2023-04-03T21:39:20;3.47;;;3.17;;
795;SDS011;381;48.770;9.188;2023-04-03T21:44:23;3.10;;;2.80;;
795;SDS011;381;48.770;9.188;2023-04-03T21:49:28;3.13;;;2.83;;
795;SDS011;381;48.770;9.188;2023-04-03T21:54:30;5.00;;;3.30;;
795;SDS011;381;48.770;9.188;2023-04-03T21:59:32;3.17;;;2.97;;
795;SDS011;381;48.770;9.188;2023-04-03T22:04:36;2.80;;;2.60;;
795;SDS011;381;48.770;9.188;2023-04-03T22:09:38;3.33;;;3.03;;
795;SDS011;381;48.770;9.188;2023-04-03T22:14:40;5.97;;;3.27;;
795;SDS011;381;48.770;9.188;2023-04-03T22:19:44;3.00;;;2.80;;
795;SDS011;381;48.770;9.188;2023-04-03T22:24:46;3.20;;;2.90;;
795;SDS011;381;48.770;9.188;2023-04-03T22:29:48;4.10;;;2.90;;
795;SDS011;381;48.770;9.188;2023-04-03T22:34:51;3.50;;;3.10;;
795;SDS011;381;48.770;9.188;2023-04-03T22:39:54;3.43;;;2.87;;
795;SDS011;381;48.770;9.188;2023-04-03T22:44:57;3.57;;;3.03;;
795;SDS011;381;48.770;9.188;2023-04-03T22:50:00;3.70;;;3.37;;
795;SDS011;381;48.770;9.188;2023-04-03T22:55:02;4.10;;;2.83;;
795;SDS011;381;48.770;9.188;2023-04-03T23:00:06;3.80;;;3.10;;
795;SDS011;381;48.770;9.188;2023-04-03T23:05:10;3.50;;;3.20;;
795;SDS011;381;48.770;9.188;2023-04-03T23:10:13;3.70;;;3.30;;
795;SDS011;381;48.770;9.188;2023-04-03T23:15:15;3.43;;;3.20;;
795;SDS011;381;48.770;9.188;2023-04-03T23:20:20;4.20;;;3.20;;
795;SDS011;381;48.770;9.188;2023-04-03T23:25:22;4.43;;;3.50;;
795;SDS011;381;48.770;9.188;2023-04-03T23:30:24;3.23;;;2.93;;
795;SDS011;381;48.770;9.188;2023-04-03T23:35:27;3.13;;;2.93;;
795;SDS011;381;48.770;9.188;2023-04-03T23:40:29;3.07;;;2.87;;
795;SDS011;381;48.770;9.188;2023-04-03T23:45:31;6.47;;;3.80;;
795;SDS011;381;48.770;9.188;2023-04-03T23:50:35;2.83;;;2.63;;
795;SDS011;381;48.770;9.188;2023-04-03T23:55:37;3.63;;;3.33;;
